Time;durP1;ratioP1;P1;durP2;ratioP2;P2;SDS_P1;SDS_P2;PMS_P1;PMS_P2;Temp;Humidity;BMP_temperature;BMP_pressure;BME280_temperature;BME280_humidity;BME280_pressure;Samples;Min_cycle;Max_cycle;Signal;HPM_P1;HPM_P2
2022/02/23 00:00:41;;;;;;;19.60;3.30;;;5.80;99.90;;;;;;4919575;29;20185;-84
2022/02/23 00:03:07;;;;;;;19.93;2.73;;;5.70;99.90;;;;;;4937066;29;20624;-84
2022/02/23 00:05:33;;;;;;;17.93;2.93;;;5.60;99.90;;;;;;4919311;29;20189;-84
2022/02/23 00:07:58;;;;;;;20.87;2.87;;;5.60;99.90;;;;;;4919607;29;20178;-84
2022/02/23 00:10:24;;;;;;;14.03;2.73;;;5.70;99.90;;;;;;4919949;29;20256;-84
2022/02/23 00:12:50;;;;;;;11.80;2.60;;;5.70;99.90;;;;;;4923325;29;20182;-84
2022/02/23 00:15:16;;;;;;;21.30;3.10;;;5.70;99.90;;;;;;4923452;29;20178;-83
2022/02/23 00:17:42;;;;;;;15.63;2.77;;;5.80;99.90;;;;;;4923483;29;20192;-84
2022/02/23 00:20:08;;;;;;;15.50;2.93;;;5.70;99.90;;;;;;4923435;29;20580;-84
2022/02/23 00:22:34;;;;;;;18.53;3.07;;;5.80;99.90;;;;;;4923334;29;20209;-84
2022/02/23 00:25:01;;;;;;;13.77;2.87;;;5.80;99.90;;;;;;4923372;29;20245;-84
2022/02/23 00:27:26;;;;;;;17.77;3.23;;;5.60;99.90;;;;;;4922824;29;20257;-84
2022/02/23 00:29:53;;;;;;;17.47;3.07;;;5.70;99.90;;;;;;4923376;29;20534;-85
2022/02/23 00:32:20;;;;;;;19.30;3.40;;;5.70;99.90;;;;;;4923109;29;20182;-84
2022/02/23 00:34:46;;;;;;;15.00;2.50;;;5.80;99.90;;;;;;4923209;29;20182;-84
2022/02/23 00:37:12;;;;;;;22.53;3.13;;;5.90;99.90;;;;;;4923022;29;20517;-84
2022/02/23 00:39:37;;;;;;;19.07;2.70;;;5.90;99.90;;;;;;4923165;29;20264;-84
2022/02/23 00:42:03;;;;;;;15.50;3.27;;;5.90;99.90;;;;;;4922789;29;20209;-84
2022/02/23 00:44:29;;;;;;;16.43;2.73;;;5.90;99.90;;;;;;4939951;29;20522;-84
2022/02/23 00:46:55;;;;;;;25.83;3.27;;;6.00;99.90;;;;;;4922938;29;20189;-84
2022/02/23 00:49:21;;;;;;;23.03;3.23;;;6.10;99.90;;;;;;4922877;29;20485;-84
2022/02/23 00:51:47;;;;;;;16.90;3.03;;;5.90;99.90;;;;;;4923229;29;20232;-84
2022/02/23 00:54:13;;;;;;;19.63;3.50;;;6.00;99.90;;;;;;4922845;29;20629;-84
2022/02/23 00:56:39;;;;;;;16.43;2.93;;;6.00;99.90;;;;;;4939719;29;20530;-84
2022/02/23 00:59:04;;;;;;;20.07;3.07;;;6.00;99.90;;;;;;4922539;29;20221;-84
2022/02/23 01:01:30;;;;;;;22.93;3.13;;;6.00;99.90;;;;;;4939779;29;20296;-84
2022/02/23 01:03:56;;;;;;;17.03;3.17;;;6.00;99.90;;;;;;4922738;29;20209;-84
2022/02/23 01:06:22;;;;;;;19.00;3.67;;;6.10;99.90;;;;;;4922609;29;20237;-84
2022/02/23 01:08:49;;;;;;;26.93;3.87;;;6.10;99.90;;;;;;4922454;29;20630;-84
2022/02/23 01:11:19;;;;;;;16.07;3.07;;;6.10;99.90;;;;;;4922460;29;20182;-84
2022/02/23 01:13:46;;;;;;;18.83;3.40;;;6.00;99.90;;;;;;4922368;29;20193;-85
2022/02/23 01:16:12;;;;;;;17.83;4.00;;;5.90;99.90;;;;;;4922675;29;20170;-84
2022/02/23 01:18:38;;;;;;;22.47;3.37;;;6.00;99.90;;;;;;4922523;29;20634;-84
2022/02/23 01:21:04;;;;;;;19.07;3.80;;;6.00;99.90;;;;;;4922370;29;20206;-83
2022/02/23 01:23:30;;;;;;;20.13;3.63;;;5.90;99.90;;;;;;4938734;29;20178;-84
2022/02/23 01:25:56;;;;;;;17.13;2.87;;;5.80;99.90;;;;;;4939418;29;20516;-84
2022/02/23 01:28:22;;;;;;;14.90;2.80;;;5.80;99.90;;;;;;4921882;29;20182;-84
2022/02/23 01:30:47;;;;;;;19.57;3.30;;;5.90;99.90;;;;;;4939411;29;20185;-84
2022/02/23 01:33:13;;;;;;;19.90;3.33;;;6.00;99.90;;;;;;4922014;29;20190;-84
2022/02/23 01:35:40;;;;;;;28.27;4.00;;;6.00;99.90;;;;;;4922247;29;20178;-84
2022/02/23 01:38:06;;;;;;;20.07;3.03;;;6.00;99.90;;;;;;4939092;29;20182;-84
2022/02/23 01:40:32;;;;;;;24.97;3.70;;;6.00;99.90;;;;;;4922075;29;20185;-84
2022/02/23 01:42:57;;;;;;;21.17;3.80;;;5.90;99.90;;;;;;4921597;29;20291;-84
2022/02/23 01:45:23;;;;;;;26.37;3.63;;;6.00;99.90;;;;;;4921901;29;20259;-84
2022/02/23 01:47:49;;;;;;;27.57;4.43;;;5.90;99.90;;;;;;4921953;29;20273;-84
2022/02/23 01:50:16;;;;;;;24.83;3.63;;;6.00;99.90;;;;;;4921940;29;20501;-84
2022/02/23 01:52:42;;;;;;;14.07;3.40;;;6.10;99.90;;;;;;4921725;29;20640;-84
2022/02/23 01:55:09;;;;;;;26.00;3.90;;;6.10;99.90;;;;;;4921713;29;20189;-84
2022/02/23 01:57:35;;;;;;;24.10;3.83;;;6.10;99.90;;;;;;4921079;29;20639;-84
2022/02/23 02:00:03;;;;;;;18.10;2.83;;;6.20;99.90;;;;;;4938752;29;20253;-84
2022/02/23 02:02:29;;;;;;;20.93;3.13;;;6.10;99.90;;;;;;4921361;29;20269;-84
2022/02/23 02:04:55;;;;;;;22.87;3.43;;;6.00;99.90;;;;;;4921498;29;20617;-84
2022/02/23 02:07:21;;;;;;;17.97;4.00;;;6.00;99.90;;;;;;4921437;29;20214;-84
2022/02/23 02:09:46;;;;;;;19.23;3.60;;;6.00;99.90;;;;;;4910629;29;20179;-83
2022/02/23 02:12:12;;;;;;;22.30;3.57;;;6.00;99.90;;;;;;4902406;29;20267;-84
2022/02/23 02:14:38;;;;;;;26.30;3.57;;;6.00;99.90;;;;;;4921129;29;20188;-84
2022/02/23 02:17:04;;;;;;;19.97;3.40;;;6.10;99.90;;;;;;4938326;29;20577;-83
2022/02/23 02:19:30;;;;;;;26.07;3.90;;;6.10;99.90;;;;;;4921192;29;20189;-84
2022/02/23 02:22:13;;;;;;;17.70;4.63;;;6.10;99.90;;;;;;4938073;29;20206;-84
2022/02/23 02:24:41;;;;;;;20.00;3.40;;;6.10;99.90;;;;;;4921160;29;20178;-84
2022/02/23 02:27:12;;;;;;;23.73;3.47;;;6.10;99.90;;;;;;4920724;29;20189;-83
2022/02/23 02:29:38;;;;;;;22.27;4.27;;;6.10;99.90;;;;;;4938268;29;20190;-84
2022/02/23 02:32:05;;;;;;;22.77;4.63;;;6.10;99.90;;;;;;4920960;29;20178;-84
2022/02/23 02:34:31;;;;;;;19.27;3.87;;;6.10;99.90;;;;;;4937188;29;20174;-84
2022/02/23 02:36:56;;;;;;;24.77;3.73;;;6.00;99.90;;;;;;4920731;29;20197;-84
2022/02/23 02:39:24;;;;;;;28.60;4.30;;;6.10;99.90;;;;;;4921081;29;20224;-84
2022/02/23 02:41:51;;;;;;;24.90;4.10;;;6.00;99.90;;;;;;4937662;29;20209;-84
2022/02/23 02:44:17;;;;;;;16.90;3.47;;;5.90;99.90;;;;;;4937787;29;20178;-84
2022/02/23 02:46:44;;;;;;;23.87;4.63;;;5.90;99.90;;;;;;4920703;29;20244;-84
2022/02/23 02:49:10;;;;;;;21.77;3.87;;;6.10;99.90;;;;;;4937791;29;20618;-85
2022/02/23 02:51:36;;;;;;;27.00;4.97;;;6.00;99.90;;;;;;4920728;29;20309;-84
2022/02/23 02:54:03;;;;;;;21.80;3.73;;;6.00;99.90;;;;;;4937724;29;20214;-84
2022/02/23 02:56:29;;;;;;;20.97;3.80;;;6.00;99.90;;;;;;4920556;29;20233;-84
2022/02/23 02:58:55;;;;;;;24.60;3.97;;;6.00;99.90;;;;;;4937519;29;20213;-84
2022/02/23 03:01:23;;;;;;;18.30;2.90;;;6.00;99.90;;;;;;4937573;29;20625;-84
2022/02/23 03:03:50;;;;;;;24.87;4.50;;;5.90;99.90;;;;;;4920667;29;20194;-84
2022/02/23 03:06:17;;;;;;;23.43;4.10;;;6.00;99.90;;;;;;4920476;29;20272;-84
2022/02/23 03:08:45;;;;;;;25.93;4.20;;;5.90;99.90;;;;;;4920563;29;20245;-84
2022/02/23 03:11:11;;;;;;;22.23;3.97;;;5.90;99.90;;;;;;4937597;29;20170;-84
2022/02/23 03:13:38;;;;;;;22.93;3.90;;;5.90;99.90;;;;;;4920258;29;20253;-84
2022/02/23 03:16:06;;;;;;;13.07;3.00;;;5.90;99.90;;;;;;4920302;29;20185;-84
2022/02/23 03:18:32;;;;;;;23.70;4.10;;;6.00;99.90;;;;;;4920181;29;20535;-84
2022/02/23 03:20:58;;;;;;;22.60;4.97;;;6.00;99.90;;;;;;4920372;29;20201;-84
2022/02/23 03:23:24;;;;;;;27.83;3.87;;;6.00;99.90;;;;;;4920221;29;20252;-84
2022/02/23 03:25:50;;;;;;;20.23;3.83;;;6.10;99.90;;;;;;4920380;29;20557;-84
2022/02/23 03:28:16;;;;;;;24.80;3.87;;;6.00;99.90;;;;;;4919681;29;20199;-84
2022/02/23 03:30:42;;;;;;;23.33;3.60;;;6.00;99.90;;;;;;4937378;29;20265;-84
2022/02/23 03:33:09;;;;;;;18.17;3.40;;;6.00;99.90;;;;;;4937389;29;20186;-84
2022/02/23 03:35:36;;;;;;;23.83;3.90;;;6.00;99.90;;;;;;4919994;29;20525;-84
2022/02/23 03:38:02;;;;;;;22.50;3.00;;;5.90;99.90;;;;;;4920142;29;20224;-84
2022/02/23 03:40:28;;;;;;;17.53;3.03;;;6.00;99.90;;;;;;4920203;29;20201;-84
2022/02/23 03:42:53;;;;;;;19.73;3.33;;;5.90;99.90;;;;;;4936920;29;20698;-84
2022/02/23 03:45:19;;;;;;;20.67;3.83;;;5.90;99.90;;;;;;4920535;29;20178;-84
2022/02/23 03:47:46;;;;;;;18.33;3.07;;;5.80;99.90;;;;;;4926180;29;20242;-84
2022/02/23 03:50:13;;;;;;;19.63;3.50;;;5.80;99.90;;;;;;4926385;29;20613;-84
2022/02/23 03:52:39;;;;;;;24.67;3.00;;;5.80;99.90;;;;;;4926476;29;20233;-84
2022/02/23 03:55:05;;;;;;;17.60;2.97;;;5.80;99.90;;;;;;4926295;29;20182;-84
2022/02/23 03:57:31;;;;;;;23.13;3.77;;;5.80;99.90;;;;;;4925946;29;20287;-84
2022/02/23 03:59:57;;;;;;;23.23;4.10;;;5.80;99.90;;;;;;4943328;29;20256;-84
2022/02/23 04:02:23;;;;;;;25.47;3.47;;;5.70;99.90;;;;;;4943181;29;20374;-84
2022/02/23 04:04:48;;;;;;;27.23;4.10;;;5.60;99.90;;;;;;4926244;29;20185;-84
2022/02/23 04:07:14;;;;;;;20.13;4.10;;;5.70;99.90;;;;;;4943003;29;20177;-84
2022/02/23 04:09:40;;;;;;;23.37;3.70;;;5.70;99.90;;;;;;4943505;29;20173;-84
2022/02/23 04:12:05;;;;;;;22.47;3.80;;;5.70;99.90;;;;;;4926335;29;20185;-84
2022/02/23 04:14:31;;;;;;;15.60;3.67;;;5.70;99.90;;;;;;4943153;29;20226;-84
2022/02/23 04:16:57;;;;;;;17.87;3.37;;;5.70;99.90;;;;;;4926007;29;20185;-85
2022/02/23 04:19:23;;;;;;;14.67;3.10;;;5.80;99.90;;;;;;4943219;29;20174;-84
2022/02/23 04:21:48;;;;;;;17.67;3.10;;;5.70;99.90;;;;;;4943193;29;20213;-84
2022/02/23 04:24:14;;;;;;;21.33;3.40;;;5.80;99.90;;;;;;4926266;29;20566;-84
2022/02/23 04:26:40;;;;;;;16.37;2.93;;;5.80;99.90;;;;;;4926078;29;20616;-84
2022/02/23 04:29:06;;;;;;;16.10;3.33;;;5.80;99.90;;;;;;4925859;29;20185;-84
2022/02/23 04:31:32;;;;;;;21.17;3.10;;;5.80;99.90;;;;;;4943120;29;20166;-84
2022/02/23 04:33:59;;;;;;;17.27;3.03;;;5.70;99.90;;;;;;4925835;29;20207;-84
2022/02/23 04:36:25;;;;;;;18.27;3.30;;;5.60;99.90;;;;;;4926059;29;20185;-84
2022/02/23 04:38:51;;;;;;;21.47;3.00;;;5.60;99.90;;;;;;4942878;29;20186;-84
2022/02/23 04:41:17;;;;;;;15.17;2.70;;;5.60;99.90;;;;;;4943044;29;20217;-84
2022/02/23 04:43:42;;;;;;;21.43;3.27;;;5.60;99.90;;;;;;4925764;29;20280;-84
2022/02/23 04:46:12;;;;;;;20.27;3.53;;;5.50;99.90;;;;;;4925773;29;20186;-84
2022/02/23 04:48:41;;;;;;;14.70;2.83;;;5.50;99.90;;;;;;4925768;29;20276;-84
2022/02/23 04:51:08;;;;;;;21.20;3.50;;;5.50;99.90;;;;;;4943072;29;20181;-84
2022/02/23 04:53:34;;;;;;;20.07;3.43;;;5.50;99.90;;;;;;4942928;29;20187;-84
2022/02/23 04:56:02;;;;;;;20.20;3.23;;;5.50;99.90;;;;;;4925590;29;20230;-84
2022/02/23 04:58:28;;;;;;;14.97;3.83;;;5.50;99.90;;;;;;4939164;29;20217;-84
2022/02/23 05:00:53;;;;;;;25.33;3.90;;;5.40;99.90;;;;;;4922494;29;20604;-84
2022/02/23 05:03:19;;;;;;;16.93;3.13;;;5.50;99.90;;;;;;4923426;29;20198;-85
2022/02/23 05:05:45;;;;;;;20.50;3.53;;;5.60;99.90;;;;;;4922667;29;20174;-84
2022/02/23 05:08:15;;;;;;;17.97;3.10;;;5.60;99.90;;;;;;4922642;29;20192;-84
2022/02/23 05:10:42;;;;;;;18.37;3.17;;;5.60;99.90;;;;;;4922748;29;20174;-84
2022/02/23 05:13:08;;;;;;;14.97;2.77;;;5.60;99.90;;;;;;4922438;29;20197;-85
2022/02/23 05:15:34;;;;;;;22.63;3.17;;;5.60;99.90;;;;;;4939324;29;20617;-84
2022/02/23 05:17:59;;;;;;;15.80;3.30;;;5.60;99.90;;;;;;4922473;29;20201;-84
2022/02/23 05:20:27;;;;;;;17.87;3.43;;;5.60;99.90;;;;;;4939655;29;20233;-84
2022/02/23 05:22:53;;;;;;;17.07;2.73;;;5.50;99.90;;;;;;4922562;29;20304;-84
2022/02/23 05:25:18;;;;;;;22.10;2.87;;;5.50;99.90;;;;;;4939563;29;20253;-84
2022/02/23 05:27:44;;;;;;;17.13;3.10;;;5.60;99.90;;;;;;4921509;29;20259;-85
2022/02/23 05:30:11;;;;;;;18.13;3.40;;;5.50;99.90;;;;;;4922276;29;20186;-84
2022/02/23 05:32:37;;;;;;;20.03;3.23;;;5.60;99.90;;;;;;4922317;29;20237;-84
2022/02/23 05:35:05;;;;;;;22.97;4.03;;;5.60;99.90;;;;;;4939246;29;20186;-84
2022/02/23 05:37:31;;;;;;;17.60;2.93;;;5.50;99.90;;;;;;4938985;29;20616;-85
2022/02/23 05:39:57;;;;;;;12.10;2.80;;;5.50;99.90;;;;;;4922249;29;20209;-84
2022/02/23 05:42:23;;;;;;;19.73;3.43;;;5.60;99.90;;;;;;4921905;29;20744;-84
2022/02/23 05:44:49;;;;;;;19.50;3.83;;;5.50;99.90;;;;;;4921892;29;20332;-85
2022/02/23 05:47:15;;;;;;;20.33;4.10;;;5.50;99.90;;;;;;4921862;29;20272;-84
2022/02/23 05:49:41;;;;;;;21.07;2.93;;;5.40;99.90;;;;;;4922132;29;20186;-84
2022/02/23 05:52:06;;;;;;;22.23;3.70;;;5.40;99.90;;;;;;4921609;29;20181;-84
2022/02/23 05:54:32;;;;;;;23.83;3.77;;;5.40;99.90;;;;;;4922115;29;20182;-85
2022/02/23 05:57:01;;;;;;;20.53;4.00;;;5.40;99.90;;;;;;4921420;29;20617;-84
2022/02/23 05:59:27;;;;;;;22.07;3.23;;;5.50;99.90;;;;;;4921515;29;20186;-84
2022/02/23 06:01:53;;;;;;;17.47;3.30;;;5.40;99.90;;;;;;4938903;29;20221;-84
2022/02/23 06:04:18;;;;;;;22.70;3.90;;;5.30;99.90;;;;;;4921679;29;20518;-85
2022/02/23 06:06:44;;;;;;;20.37;3.33;;;5.30;99.90;;;;;;4921583;29;20197;-85
2022/02/23 06:09:10;;;;;;;17.60;2.93;;;5.30;99.90;;;;;;4938469;29;20232;-85
2022/02/23 06:11:36;;;;;;;17.77;2.90;;;5.20;99.90;;;;;;4921614;29;20197;-84
2022/02/23 06:14:05;;;;;;;17.23;2.87;;;5.30;99.90;;;;;;4921251;29;20213;-84
2022/02/23 06:16:31;;;;;;;16.13;3.97;;;5.20;99.90;;;;;;4921151;29;20266;-85
2022/02/23 06:18:56;;;;;;;22.47;3.97;;;5.20;99.90;;;;;;4921272;29;20210;-84
2022/02/23 06:21:23;;;;;;;22.97;3.63;;;5.20;99.90;;;;;;4922971;29;20206;-84
2022/02/23 06:23:49;;;;;;;18.37;3.50;;;5.30;99.90;;;;;;4938204;29;20246;-84
2022/02/23 06:26:15;;;;;;;24.53;4.00;;;5.30;99.90;;;;;;4921286;29;20236;-84
2022/02/23 06:28:42;;;;;;;18.87;3.40;;;5.30;99.90;;;;;;4930246;29;20560;-85
2022/02/23 06:31:08;;;;;;;13.27;3.60;;;5.40;99.90;;;;;;4934697;29;20178;-85
2022/02/23 06:33:35;;;;;;;19.97;3.53;;;5.40;99.90;;;;;;4940301;29;20244;-85
2022/02/23 06:36:01;;;;;;;17.67;2.87;;;5.30;99.90;;;;;;4934452;29;20189;-86
2022/02/23 06:38:26;;;;;;;22.20;3.53;;;5.30;99.90;;;;;;4919821;29;20632;-87
2022/02/23 06:40:55;;;;;;;25.40;3.77;;;5.30;99.90;;;;;;4924499;29;20186;-84
2022/02/23 06:43:21;;;;;;;22.70;3.50;;;5.30;99.90;;;;;;4937076;29;20647;-87
2022/02/23 06:45:49;;;;;;;21.50;3.40;;;5.30;99.90;;;;;;4933102;29;20194;-86
2022/02/23 06:48:14;;;;;;;17.17;3.47;;;5.40;99.90;;;;;;4919852;29;20676;-85
2022/02/23 06:50:41;;;;;;;19.13;3.53;;;5.30;99.90;;;;;;4937709;29;20215;-86
2022/02/23 06:53:07;;;;;;;19.13;3.17;;;5.30;99.90;;;;;;4937798;29;20184;-85
2022/02/23 06:55:34;;;;;;;30.37;4.10;;;5.30;99.90;;;;;;4937941;29;20182;-87
2022/02/23 06:57:59;;;;;;;20.70;3.53;;;5.30;99.90;;;;;;4937237;29;20744;-86
2022/02/23 07:00:25;;;;;;;19.37;4.00;;;5.30;99.90;;;;;;4920715;29;20182;-85
2022/02/23 07:02:53;;;;;;;19.23;3.27;;;5.30;99.90;;;;;;4920793;29;20228;-86
2022/02/23 07:05:19;;;;;;;16.87;3.40;;;5.30;99.90;;;;;;4920675;29;20193;-86
2022/02/23 07:07:46;;;;;;;20.47;4.03;;;5.30;99.90;;;;;;4920369;29;20197;-87
2022/02/23 07:10:24;;;;;;;20.33;3.03;;;5.30;99.90;;;;;;4920476;29;20214;-86
2022/02/23 07:12:51;;;;;;;19.57;3.20;;;5.30;99.90;;;;;;4920299;29;20201;-86
2022/02/23 07:15:18;;;;;;;18.40;2.80;;;5.30;99.90;;;;;;4920101;29;20231;-86
2022/02/23 07:17:44;;;;;;;14.23;3.00;;;5.30;99.90;;;;;;4919456;29;20197;-87
2022/02/23 07:20:11;;;;;;;16.67;3.20;;;5.40;99.90;;;;;;4920101;29;20178;-87
2022/02/23 07:22:37;;;;;;;21.50;3.87;;;5.40;99.90;;;;;;4920039;29;20217;-86
2022/02/23 07:25:08;;;;;;;29.00;3.87;;;5.40;99.90;;;;;;4919743;29;20190;-86
2022/02/23 07:27:35;;;;;;;21.33;3.73;;;5.40;99.90;;;;;;4937204;29;20566;-86
2022/02/23 07:30:03;;;;;;;21.30;3.60;;;5.40;99.90;;;;;;4920049;29;20635;-86
2022/02/23 07:32:31;;;;;;;20.50;3.70;;;5.40;99.90;;;;;;4920462;29;20697;-86
2022/02/23 07:34:58;;;;;;;20.13;3.77;;;5.40;99.90;;;;;;4920241;29;20186;-86
2022/02/23 07:37:24;;;;;;;21.30;3.77;;;5.50;99.90;;;;;;4919502;29;20221;-85
2022/02/23 07:39:52;;;;;;;22.03;3.10;;;5.50;99.90;;;;;;4937218;29;20178;-85
2022/02/23 07:42:19;;;;;;;25.00;4.47;;;5.50;99.90;;;;;;4923222;29;20216;-85
2022/02/23 07:44:46;;;;;;;19.07;3.40;;;5.50;99.90;;;;;;4927209;29;20185;-85
2022/02/23 07:47:14;;;;;;;22.10;3.40;;;5.60;99.90;;;;;;4942202;29;20173;-84
2022/02/23 07:49:40;;;;;;;21.77;3.57;;;5.60;99.90;;;;;;4928557;29;20173;-85
2022/02/23 07:52:06;;;;;;;21.87;3.57;;;5.60;99.90;;;;;;4952537;29;20550;-85
2022/02/23 07:54:32;;;;;;;18.23;3.23;;;5.70;99.90;;;;;;4938653;29;20185;-85
2022/02/23 07:56:58;;;;;;;22.33;3.43;;;5.70;99.90;;;;;;4932172;29;20260;-85
2022/02/23 07:59:23;;;;;;;19.47;3.73;;;5.70;99.90;;;;;;4919286;29;20193;-85
2022/02/23 08:01:51;;;;;;;20.13;3.77;;;5.80;99.90;;;;;;4919969;29;20218;-85
2022/02/23 08:04:17;;;;;;;25.43;3.57;;;5.70;99.90;;;;;;4930013;29;20212;-85
2022/02/23 08:06:43;;;;;;;22.00;3.43;;;5.80;99.90;;;;;;4956014;29;20208;-85
2022/02/23 08:09:10;;;;;;;22.10;4.27;;;5.80;99.90;;;;;;4933511;29;20613;-85
2022/02/23 08:11:37;;;;;;;21.77;4.07;;;5.80;99.90;;;;;;4947724;29;20601;-87
2022/02/23 08:14:08;;;;;;;18.77;4.13;;;5.90;99.90;;;;;;4938776;29;20228;-85
2022/02/23 08:19:37;;;;;;;21.60;4.10;;;5.90;99.90;;;;;;4956364;29;20224;-85
2022/02/23 08:22:10;;;;;;;19.70;3.90;;;5.80;99.90;;;;;;4938995;29;20205;-85
2022/02/23 08:24:39;;;;;;;20.77;3.63;;;5.80;99.90;;;;;;4938690;29;20178;-87
2022/02/23 08:27:07;;;;;;;20.30;4.07;;;5.80;99.90;;;;;;4931074;29;20273;-86
2022/02/23 08:29:34;;;;;;;28.80;5.63;;;5.90;99.90;;;;;;4919637;29;20182;-85
2022/02/23 08:32:00;;;;;;;20.63;3.90;;;6.10;99.90;;;;;;4919727;29;20178;-84
2022/02/23 08:34:26;;;;;;;24.33;4.40;;;6.30;99.90;;;;;;4940035;29;20174;-85
2022/02/23 08:36:52;;;;;;;25.13;4.30;;;6.30;99.90;;;;;;4925516;29;20523;-84
2022/02/23 08:39:18;;;;;;;31.30;4.77;;;6.30;99.90;;;;;;4928329;29;20579;-87
2022/02/23 08:41:45;;;;;;;32.17;4.67;;;6.30;99.90;;;;;;4923353;29;20213;-85
2022/02/23 08:44:12;;;;;;;25.93;4.13;;;6.30;99.90;;;;;;4925370;29;20174;-87
2022/02/23 08:46:39;;;;;;;25.97;4.53;;;6.20;99.90;;;;;;4923043;29;20189;-86
2022/02/23 08:49:09;;;;;;;22.13;4.87;;;6.20;99.90;;;;;;4923185;29;20269;-85
2022/02/23 08:51:37;;;;;;;17.70;4.70;;;6.40;99.90;;;;;;4922888;29;20226;-85
2022/02/23 08:54:05;;;;;;;22.40;4.17;;;6.30;99.90;;;;;;4922988;29;20200;-84
2022/02/23 08:56:31;;;;;;;20.10;3.50;;;6.50;99.90;;;;;;4938653;29;20229;-85
2022/02/23 08:58:56;;;;;;;28.20;4.23;;;6.60;99.90;;;;;;4949143;29;20196;-86
2022/02/23 09:01:22;;;;;;;22.73;4.40;;;6.50;99.90;;;;;;4942241;29;20205;-85
2022/02/23 09:03:48;;;;;;;18.53;3.87;;;6.60;99.90;;;;;;4953442;29;20618;-84
2022/02/23 09:06:14;;;;;;;21.20;3.90;;;6.60;99.90;;;;;;4922725;29;20182;-85
2022/02/23 09:08:40;;;;;;;25.33;4.53;;;6.70;99.90;;;;;;4922942;29;20185;-87
2022/02/23 09:11:08;;;;;;;24.30;4.30;;;6.70;99.90;;;;;;4927794;29;20181;-84
2022/02/23 09:13:35;;;;;;;22.73;4.17;;;6.70;99.90;;;;;;4947792;29;20181;-86
2022/02/23 09:16:01;;;;;;;19.63;3.93;;;6.70;99.90;;;;;;4935148;29;20273;-85
2022/02/23 09:18:27;;;;;;;27.60;4.40;;;6.80;99.90;;;;;;4937582;29;20265;-84
2022/02/23 09:20:52;;;;;;;21.40;4.13;;;6.80;99.90;;;;;;4939572;29;20236;-85
2022/02/23 09:23:19;;;;;;;23.43;3.73;;;6.80;99.90;;;;;;4938131;29;20210;-88
2022/02/23 09:25:45;;;;;;;19.53;4.07;;;6.70;99.90;;;;;;4921995;29;20185;-84
2022/02/23 09:28:11;;;;;;;19.83;3.63;;;6.70;99.90;;;;;;4936385;29;20182;-86
2022/02/23 09:30:37;;;;;;;19.07;3.63;;;6.70;99.90;;;;;;4938254;29;20189;-86
2022/02/23 09:33:05;;;;;;;18.07;3.80;;;6.70;99.90;;;;;;4939543;29;20182;-88
2022/02/23 09:35:30;;;;;;;23.43;4.27;;;6.80;99.90;;;;;;4939424;29;20276;-85
2022/02/23 09:37:57;;;;;;;17.33;3.90;;;7.00;99.90;;;;;;4922494;29;20660;-87
2022/02/23 09:40:24;;;;;;;17.00;3.30;;;7.00;99.90;;;;;;4921288;29;20556;-85
2022/02/23 09:42:50;;;;;;;20.37;3.80;;;7.10;99.90;;;;;;4920611;29;20216;-84
2022/02/23 09:45:17;;;;;;;17.47;3.83;;;7.20;99.90;;;;;;4937944;29;20511;-85
2022/02/23 09:47:43;;;;;;;21.17;4.17;;;7.40;99.90;;;;;;4938926;29;20178;-84
2022/02/23 09:50:11;;;;;;;13.33;3.23;;;7.40;99.90;;;;;;4921586;29;20686;-84
2022/02/23 09:52:37;;;;;;;20.70;3.93;;;7.10;99.90;;;;;;4921936;29;20189;-86
2022/02/23 09:55:05;;;;;;;18.80;4.00;;;7.20;99.90;;;;;;4921744;29;20174;-86
2022/02/23 09:57:30;;;;;;;13.07;3.17;;;7.20;99.90;;;;;;4946075;29;20252;-86
2022/02/23 09:59:57;;;;;;;22.43;3.87;;;7.20;99.90;;;;;;4931896;29;20605;-87
2022/02/23 10:02:23;;;;;;;23.37;3.97;;;7.40;99.90;;;;;;4939209;29;20208;-84
2022/02/23 10:04:50;;;;;;;22.03;4.63;;;7.40;99.90;;;;;;4937632;29;20185;-86
2022/02/23 10:07:16;;;;;;;18.70;3.70;;;7.40;99.90;;;;;;4940420;29;20668;-85
2022/02/23 10:09:43;;;;;;;18.27;3.53;;;7.50;99.90;;;;;;4940177;29;20189;-84
2022/02/23 10:12:19;;;;;;;15.80;2.90;;;7.60;99.90;;;;;;4923985;29;20249;-85
2022/02/23 10:14:46;;;;;;;18.47;3.27;;;7.50;99.90;;;;;;4945333;29;20197;-85
2022/02/23 10:17:12;;;;;;;16.30;2.97;;;7.60;99.90;;;;;;4946367;29;20178;-86
2022/02/23 10:19:49;;;;;;;18.37;3.87;;;7.60;99.90;;;;;;4947728;29;20240;-86
2022/02/23 10:22:21;;;;;;;18.17;3.07;;;7.70;99.90;;;;;;4930979;29;20196;-86
2022/02/23 10:24:47;;;;;;;15.67;4.13;;;7.80;99.90;;;;;;4923489;29;20623;-85
2022/02/23 10:27:15;;;;;;;18.77;3.30;;;7.80;99.90;;;;;;4937875;29;20186;-85
2022/02/23 10:29:55;;;;;;;24.23;4.00;;;7.80;99.90;;;;;;4938093;29;20202;-86
2022/02/23 10:32:22;;;;;;;14.17;3.23;;;7.90;99.90;;;;;;4937978;29;20185;-85
2022/02/23 10:34:54;;;;;;;16.13;3.27;;;8.00;99.90;;;;;;4921203;29;20560;-85
2022/02/23 10:37:22;;;;;;;15.10;2.60;;;8.10;99.90;;;;;;4938061;29;20166;-84
2022/02/23 10:40:00;;;;;;;16.20;2.73;;;8.00;99.90;;;;;;4937706;29;20575;-85
2022/02/23 10:42:29;;;;;;;18.87;3.20;;;8.20;99.90;;;;;;4920700;29;20229;-85
2022/02/23 10:44:57;;;;;;;21.17;4.07;;;8.20;99.90;;;;;;4919918;29;20269;-86
2022/02/23 10:47:37;;;;;;;19.00;3.90;;;8.30;99.90;;;;;;4920549;29;20178;-86
2022/02/23 10:50:23;;;;;;;14.83;2.90;;;8.50;99.90;;;;;;4922136;29;20181;-87
2022/02/23 10:52:55;;;;;;;18.90;3.20;;;8.40;99.90;;;;;;4951144;29;20192;-87
2022/02/23 10:55:28;;;;;;;22.70;3.67;;;8.10;99.90;;;;;;4937037;29;20206;-86
2022/02/23 10:58:06;;;;;;;17.70;3.57;;;7.90;99.90;;;;;;4942596;29;20316;-86
2022/02/23 11:00:37;;;;;;;13.97;2.97;;;7.70;99.90;;;;;;4916121;29;20181;-86
2022/02/23 11:03:03;;;;;;;18.33;3.30;;;7.70;99.90;;;;;;4920080;29;20210;-86
2022/02/23 11:05:31;;;;;;;13.50;3.07;;;7.70;99.90;;;;;;4937296;29;20186;-86
2022/02/23 11:07:59;;;;;;;22.53;4.03;;;7.70;99.90;;;;;;4937486;29;20182;-86
2022/02/23 11:10:25;;;;;;;14.10;3.13;;;7.80;99.90;;;;;;4920153;29;20186;-88
2022/02/23 11:12:53;;;;;;;21.23;3.67;;;8.10;99.90;;;;;;4917938;29;20200;-85
2022/02/23 11:15:21;;;;;;;18.83;3.57;;;8.50;99.90;;;;;;4919751;29;20177;-89
2022/02/23 11:17:49;;;;;;;23.17;4.20;;;8.80;99.90;;;;;;4936321;29;20186;-86
2022/02/23 11:20:21;;;;;;;11.67;2.40;;;8.90;99.90;;;;;;4937055;29;20190;-85
2022/02/23 11:23:01;;;;;;;18.87;2.90;;;9.00;99.90;;;;;;4919673;29;20699;-85
2022/02/23 11:25:30;;;;;;;17.83;3.40;;;8.90;99.90;;;;;;4915151;29;20178;-86
2022/02/23 11:28:22;;;;;;;13.47;3.20;;;8.80;99.90;;;;;;4926473;29;20182;-86
2022/02/23 11:31:15;;;;;;;17.83;3.80;;;8.80;99.90;;;;;;4924782;29;20209;-86
2022/02/23 11:33:47;;;;;;;14.53;2.93;;;8.80;99.90;;;;;;4918048;29;20186;-86
2022/02/23 11:36:32;;;;;;;14.67;3.13;;;8.80;99.90;;;;;;4937229;29;20162;-85
2022/02/23 11:39:00;;;;;;;15.33;2.83;;;8.80;99.90;;;;;;4937198;29;20174;-86
2022/02/23 11:41:29;;;;;;;16.23;3.33;;;9.00;99.90;;;;;;4937023;29;20328;-86
2022/02/23 11:44:08;;;;;;;15.37;2.83;;;9.10;99.90;;;;;;4936901;29;20260;-85
2022/02/23 11:47:09;;;;;;;11.03;2.10;;;9.00;99.90;;;;;;4916290;29;20181;-86
2022/02/23 11:49:36;;;;;;;9.20;2.30;;;9.10;99.90;;;;;;4924406;29;20191;-86
2022/02/23 11:52:06;;;;;;;12.10;2.23;;;9.40;99.90;;;;;;4930328;29;20228;-86
2022/02/23 11:55:02;;;;;;;10.60;2.30;;;9.50;99.90;;;;;;4938720;29;20205;-84
2022/02/23 11:57:49;;;;;;;11.30;2.70;;;9.40;99.90;;;;;;4945173;29;20222;-85
2022/02/23 12:00:30;;;;;;;15.33;3.17;;;9.40;99.90;;;;;;4919787;29;20197;-85
2022/02/23 12:03:30;;;;;;;14.13;2.90;;;9.40;99.90;;;;;;4935350;29;20232;-85
2022/02/23 12:06:06;;;;;;;14.93;2.50;;;9.50;99.90;;;;;;4917251;29;20182;-85
2022/02/23 12:08:31;;;;;;;9.00;1.63;;;9.70;99.90;;;;;;4923244;29;20205;-83
2022/02/23 12:11:13;;;;;;;8.27;2.03;;;9.80;99.90;;;;;;4939369;29;20602;-85
2022/02/23 12:13:44;;;;;;;9.47;1.97;;;10.00;99.90;;;;;;4939115;29;20613;-87
2022/02/23 12:16:38;;;;;;;11.27;2.17;;;9.90;99.90;;;;;;4923264;29;20626;-85
2022/02/23 12:19:06;;;;;;;8.70;1.77;;;10.10;99.90;;;;;;4921944;29;20256;-85
2022/02/23 12:21:40;;;;;;;12.30;2.20;;;10.10;99.90;;;;;;4940645;29;20642;-87
2022/02/23 12:24:06;;;;;;;6.80;2.33;;;10.00;99.90;;;;;;4939130;29;20506;-86
2022/02/23 12:26:39;;;;;;;7.07;1.80;;;10.00;99.90;;;;;;4955797;29;20221;-85
2022/02/23 12:29:09;;;;;;;8.13;2.30;;;10.20;99.90;;;;;;4958860;28;20209;-87
2022/02/23 12:31:35;;;;;;;9.47;1.77;;;10.10;99.90;;;;;;4959752;29;20196;-87
2022/02/23 12:34:07;;;;;;;7.40;1.87;;;10.20;99.90;;;;;;4942284;29;20188;-86
2022/02/23 12:36:36;;;;;;;8.38;1.67;;;10.20;99.90;;;;;;4959114;29;20202;-87
2022/02/23 12:39:06;;;;;;;7.67;1.80;;;10.20;99.90;;;;;;4959047;28;20188;-85
2022/02/23 12:41:34;;;;;;;8.07;1.60;;;10.40;99.90;;;;;;4942011;29;20251;-86
2022/02/23 12:44:04;;;;;;;4.45;1.30;;;10.50;99.90;;;;;;4941917;29;20181;-86
2022/02/23 12:46:32;;;;;;;8.15;1.52;;;10.80;99.90;;;;;;4959402;29;20165;-86
2022/02/23 12:48:59;;;;;;;8.52;1.50;;;11.00;99.90;;;;;;4959172;29;20192;-86
2022/02/23 12:51:29;;;;;;;7.80;1.75;;;11.10;99.90;;;;;;4939106;29;20640;-85
2022/02/23 12:53:58;;;;;;;5.18;1.90;;;10.90;99.90;;;;;;4931425;29;20262;-85